Terminal Aerodrome Forecast
Issued by NWS

Home | Current Version | Previous Version | Text Only | Print | Product List | Glossary On
Versions: 1 2 3 4 5 6 7 8 9 10 11 12 13 14 15 16 17 18 19 20
000
FTUS43 KLSX 231200 AAA
TAFCPS
TAF AMD
KCPS 231229Z 2312/2412 00000KT P6SM FEW250
     FM231500 11004KT P6SM SCT250
     FM240000 00000KT P6SM FEW250=

USA.gov is the U.S. government's official web portal to all federal, state and local government web resources and services.